Time;durP1;ratioP1;P1;durP2;ratioP2;P2;SDS_P1;SDS_P2;PMS_P1;PMS_P2;Temp;Humidity;BMP_temperature;BMP_pressure;BME280_temperature;BME280_humidity;BME280_pressure;Samples;Min_cycle;Max_cycle;Signal;HPM_P1;HPM_P2
2021/09/22 00:00:28;;;;;;;4.97;3.60;;;16.90;99.90;;;;;;5014067;28;20033;-76
2021/09/22 00:02:54;;;;;;;4.40;3.40;;;16.90;99.90;;;;;;5013992;28;20084;-76
2021/09/22 00:05:20;;;;;;;3.95;3.65;;;16.90;99.90;;;;;;5013993;28;20044;-76
2021/09/22 00:07:46;;;;;;;3.90;3.60;;;16.90;99.90;;;;;;5014207;28;20036;-76
2021/09/22 00:10:17;;;;;;;4.63;3.80;;;16.90;99.90;;;;;;5013888;28;20397;-76
2021/09/22 00:12:43;;;;;;;4.50;3.42;;;16.80;99.90;;;;;;5013800;28;20058;-76
2021/09/22 00:15:11;;;;;;;3.78;3.47;;;16.80;99.90;;;;;;5012497;28;20061;-76
2021/09/22 00:17:37;;;;;;;4.05;3.70;;;16.70;99.90;;;;;;5013909;28;20081;-76
2021/09/22 00:20:03;;;;;;;4.35;3.90;;;16.70;99.90;;;;;;5012364;28;20030;-76
2021/09/22 00:22:29;;;;;;;3.60;3.30;;;16.70;99.90;;;;;;5013537;28;20018;-76
2021/09/22 00:24:55;;;;;;;4.38;3.95;;;16.70;99.90;;;;;;5013733;28;20045;-76
2021/09/22 00:27:21;;;;;;;5.13;3.83;;;16.80;99.90;;;;;;5013612;28;20101;-76
2021/09/22 00:29:47;;;;;;;4.10;3.78;;;16.80;99.90;;;;;;5013404;28;20461;-76
2021/09/22 00:32:13;;;;;;;3.60;3.30;;;16.80;99.90;;;;;;5013703;28;20498;-76
2021/09/22 00:34:38;;;;;;;4.45;3.70;;;16.90;99.90;;;;;;5012067;28;20022;-76
2021/09/22 00:37:04;;;;;;;5.93;3.95;;;16.90;99.90;;;;;;5013488;28;20029;-76
2021/09/22 00:39:31;;;;;;;3.95;3.65;;;17.00;99.90;;;;;;5013680;28;20025;-75
2021/09/22 00:41:57;;;;;;;4.07;3.78;;;17.00;99.90;;;;;;5013245;28;20073;-76
2021/09/22 00:44:22;;;;;;;4.78;4.35;;;16.90;99.90;;;;;;5011983;28;20428;-76
2021/09/22 00:46:48;;;;;;;3.95;3.55;;;17.00;99.90;;;;;;5013352;28;20384;-76
2021/09/22 00:49:14;;;;;;;4.50;4.10;;;17.00;99.90;;;;;;5013143;28;20018;-76
2021/09/22 00:51:40;;;;;;;4.32;3.95;;;17.10;99.90;;;;;;5013128;28;20053;-76
2021/09/22 00:54:06;;;;;;;4.35;4.05;;;17.00;99.90;;;;;;5013109;28;20049;-76
2021/09/22 00:56:32;;;;;;;3.20;3.00;;;17.10;99.90;;;;;;5012963;28;20017;-76
2021/09/22 00:58:57;;;;;;;4.28;3.88;;;17.00;99.90;;;;;;5013136;28;20472;-75
2021/09/22 01:01:23;;;;;;;3.83;3.53;;;17.10;99.90;;;;;;5012894;28;20065;-76
2021/09/22 01:03:49;;;;;;;3.83;3.53;;;17.10;99.90;;;;;;5012879;28;20029;-76
2021/09/22 01:06:16;;;;;;;3.22;3.03;;;17.10;99.90;;;;;;5013002;28;20097;-76
2021/09/22 01:08:42;;;;;;;4.32;3.45;;;17.10;99.90;;;;;;5012802;28;20025;-76
2021/09/22 01:11:08;;;;;;;3.50;3.20;;;17.10;99.90;;;;;;5012644;28;20101;-76
2021/09/22 01:13:34;;;;;;;4.18;3.78;;;17.10;99.90;;;;;;5011649;28;20117;-76
2021/09/22 01:16:00;;;;;;;4.03;3.58;;;17.20;99.90;;;;;;5012928;28;20096;-76
2021/09/22 01:18:26;;;;;;;6.80;3.67;;;17.20;99.90;;;;;;5012589;28;20030;-76
2021/09/22 01:20:57;;;;;;;4.13;3.83;;;17.20;99.90;;;;;;5012575;28;20037;-76
2021/09/22 01:23:25;;;;;;;4.20;3.90;;;17.20;99.90;;;;;;5012737;28;20076;-76
2021/09/22 01:25:52;;;;;;;6.22;3.20;;;17.30;99.90;;;;;;5012228;28;20025;-76
2021/09/22 01:28:21;;;;;;;3.60;3.40;;;17.20;99.90;;;;;;5012500;28;20030;-76
2021/09/22 01:30:47;;;;;;;3.80;3.20;;;17.20;99.90;;;;;;5012368;28;20048;-76
2021/09/22 01:33:15;;;;;;;3.50;3.30;;;17.20;99.90;;;;;;5011143;28;20591;-76
2021/09/22 01:35:44;;;;;;;3.28;2.97;;;17.20;99.90;;;;;;5012558;28;20041;-76
2021/09/22 01:38:12;;;;;;;5.30;3.15;;;17.20;99.90;;;;;;5012245;28;20036;-76
2021/09/22 01:40:38;;;;;;;3.42;2.95;;;17.20;99.90;;;;;;5012172;28;20025;-76
2021/09/22 01:43:05;;;;;;;3.30;3.00;;;17.20;99.90;;;;;;5012238;28;20076;-76
2021/09/22 01:45:32;;;;;;;3.50;3.20;;;17.20;99.90;;;;;;5011101;28;20022;-76
2021/09/22 01:47:59;;;;;;;3.03;2.78;;;17.20;99.90;;;;;;5012201;28;20018;-76
2021/09/22 01:50:26;;;;;;;3.92;2.70;;;17.20;99.90;;;;;;5012030;28;20026;-76
2021/09/22 01:52:52;;;;;;;7.57;3.20;;;17.20;99.90;;;;;;5012034;28;20046;-75
2021/09/22 01:55:20;;;;;;;3.55;2.60;;;17.30;99.90;;;;;;5012312;28;20037;-76
2021/09/22 01:57:47;;;;;;;3.03;2.83;;;17.30;99.90;;;;;;5012031;28;20026;-76
2021/09/22 02:00:13;;;;;;;2.70;2.50;;;17.30;99.90;;;;;;5011886;28;20030;-76
2021/09/22 02:02:39;;;;;;;4.53;2.70;;;17.30;99.90;;;;;;5012190;28;20022;-76
2021/09/22 02:05:05;;;;;;;3.15;2.85;;;17.30;99.90;;;;;;5011924;28;20469;-76
2021/09/22 02:07:32;;;;;;;3.22;2.85;;;17.30;99.90;;;;;;5013342;28;20071;-76
2021/09/22 02:09:59;;;;;;;2.53;2.42;;;17.30;99.90;;;;;;5031767;28;20392;-76
2021/09/22 02:12:26;;;;;;;2.78;2.30;;;17.30;99.90;;;;;;5031590;28;20030;-76
2021/09/22 02:14:52;;;;;;;3.30;2.53;;;17.30;99.90;;;;;;5031682;28;20022;-75
2021/09/22 02:17:17;;;;;;;5.47;2.90;;;17.40;99.90;;;;;;5031676;28;20032;-75
2021/09/22 02:19:44;;;;;;;3.10;2.90;;;17.40;99.90;;;;;;5031346;28;20052;-76
2021/09/22 02:22:10;;;;;;;2.67;2.47;;;17.40;99.90;;;;;;5031509;28;20037;-75
2021/09/22 02:24:40;;;;;;;2.70;2.50;;;17.40;99.90;;;;;;5031502;28;20029;-75
2021/09/22 02:27:06;;;;;;;3.00;2.80;;;17.40;99.90;;;;;;5031638;28;20076;-75
2021/09/22 02:29:32;;;;;;;3.28;2.88;;;17.40;99.90;;;;;;5031370;28;20577;-76
2021/09/22 02:31:57;;;;;;;3.00;2.80;;;17.40;99.90;;;;;;5030153;28;20029;-76
2021/09/22 02:34:23;;;;;;;2.38;2.28;;;17.40;99.90;;;;;;5019220;28;20062;-76
2021/09/22 02:36:49;;;;;;;2.65;2.45;;;17.40;99.90;;;;;;5011636;28;20038;-76
2021/09/22 02:39:14;;;;;;;3.55;3.25;;;17.40;99.90;;;;;;5013565;28;20026;-76
2021/09/22 02:41:40;;;;;;;2.45;2.33;;;17.40;99.90;;;;;;5015441;28;20088;-76
2021/09/22 02:44:06;;;;;;;3.15;2.50;;;17.30;99.90;;;;;;5015555;28;20104;-76
2021/09/22 02:46:31;;;;;;;2.60;2.50;;;17.40;99.90;;;;;;5015613;28;20022;-76
2021/09/22 02:48:57;;;;;;;2.95;2.55;;;17.40;99.90;;;;;;5015556;28;20057;-76
2021/09/22 02:51:23;;;;;;;2.75;2.55;;;17.40;99.90;;;;;;5014230;28;20030;-76
2021/09/22 02:53:49;;;;;;;2.55;2.33;;;17.40;99.90;;;;;;5014995;28;20137;-76
2021/09/22 02:56:14;;;;;;;2.10;2.00;;;17.50;99.90;;;;;;5013795;28;20032;-76
2021/09/22 02:58:40;;;;;;;2.45;2.30;;;17.50;99.90;;;;;;5013525;28;20484;-76
2021/09/22 03:01:06;;;;;;;2.67;2.22;;;17.50;99.90;;;;;;5014903;28;20105;-76
2021/09/22 03:03:32;;;;;;;2.72;2.53;;;17.50;99.90;;;;;;5013232;28;20056;-76
2021/09/22 03:05:57;;;;;;;4.10;2.63;;;17.50;99.90;;;;;;5013483;28;20022;-76
2021/09/22 03:08:23;;;;;;;3.05;2.85;;;17.60;99.90;;;;;;5015000;28;20367;-76
2021/09/22 03:10:49;;;;;;;3.40;2.20;;;17.60;99.90;;;;;;5014736;28;20513;-76
2021/09/22 03:13:15;;;;;;;5.22;2.58;;;17.60;99.90;;;;;;5014880;28;20034;-76
2021/09/22 03:15:41;;;;;;;2.55;2.17;;;17.50;99.90;;;;;;5014325;28;20025;-76
2021/09/22 03:18:07;;;;;;;2.35;2.20;;;17.60;99.90;;;;;;5013994;28;20225;-76
2021/09/22 03:20:33;;;;;;;2.92;2.72;;;17.60;99.90;;;;;;5012692;28;20040;-76
2021/09/22 03:22:58;;;;;;;2.55;2.30;;;17.60;99.90;;;;;;5012756;28;20451;-75
2021/09/22 03:25:24;;;;;;;2.53;2.40;;;17.60;99.90;;;;;;5012563;28;20113;-76
2021/09/22 03:27:51;;;;;;;2.80;2.28;;;17.60;99.90;;;;;;5012671;28;20018;-76
2021/09/22 03:30:17;;;;;;;2.40;2.20;;;17.60;99.90;;;;;;5013814;28;20021;-76
2021/09/22 03:32:43;;;;;;;2.63;2.20;;;17.70;99.90;;;;;;5013642;28;20037;-76
2021/09/22 03:35:10;;;;;;;2.72;2.53;;;17.60;99.90;;;;;;5012338;28;20057;-76
2021/09/22 03:37:36;;;;;;;2.50;2.30;;;17.60;99.90;;;;;;5013848;28;20084;-76
2021/09/22 03:40:02;;;;;;;3.00;2.83;;;17.60;99.90;;;;;;5013444;28;20034;-76
2021/09/22 03:42:28;;;;;;;5.28;2.50;;;17.60;99.90;;;;;;5013569;28;20026;-76
2021/09/22 03:44:54;;;;;;;3.00;2.78;;;17.60;99.90;;;;;;5013894;28;20423;-76
2021/09/22 03:47:20;;;;;;;5.45;2.63;;;17.60;99.90;;;;;;5013462;28;20021;-76
2021/09/22 03:49:47;;;;;;;4.05;2.70;;;17.60;99.90;;;;;;5012915;28;20033;-76
2021/09/22 03:52:12;;;;;;;5.20;3.55;;;17.60;99.90;;;;;;4970357;28;1246502;-76
2021/09/22 03:54:38;;;;;;;3.08;2.88;;;17.60;99.90;;;;;;5014460;28;20025;-76
2021/09/22 03:57:04;;;;;;;2.75;2.55;;;17.60;99.90;;;;;;5014462;28;20381;-76
2021/09/22 03:59:30;;;;;;;3.35;2.85;;;17.60;99.90;;;;;;5014359;28;20396;-76
2021/09/22 04:01:55;;;;;;;3.17;2.88;;;17.60;99.90;;;;;;5014086;28;20026;-76
2021/09/22 04:04:21;;;;;;;2.92;2.72;;;17.60;99.90;;;;;;5014171;28;20021;-76
2021/09/22 04:06:47;;;;;;;3.30;3.10;;;17.60;99.90;;;;;;5014387;28;20026;-76
2021/09/22 04:09:14;;;;;;;3.38;3.10;;;17.60;99.90;;;;;;5014035;28;20026;-76
2021/09/22 04:11:40;;;;;;;4.35;2.80;;;17.60;99.90;;;;;;5016648;28;20034;-76
2021/09/22 04:14:06;;;;;;;4.18;2.85;;;17.60;99.90;;;;;;5014196;28;20025;-76
2021/09/22 04:16:32;;;;;;;2.80;2.60;;;17.60;99.90;;;;;;5013803;28;20113;-76
2021/09/22 04:18:57;;;;;;;3.17;2.40;;;17.50;99.90;;;;;;5014082;28;20026;-76
2021/09/22 04:21:23;;;;;;;3.70;3.40;;;17.50;99.90;;;;;;5013847;28;20026;-76
2021/09/22 04:23:49;;;;;;;5.68;3.10;;;17.50;99.90;;;;;;5012810;28;20492;-76
2021/09/22 04:26:15;;;;;;;2.92;2.75;;;17.60;99.90;;;;;;5013950;28;20502;-76
2021/09/22 04:28:41;;;;;;;4.00;2.80;;;17.60;99.90;;;;;;5013874;28;20029;-76
2021/09/22 04:31:07;;;;;;;3.08;2.75;;;17.60;99.90;;;;;;5012405;28;20022;-76
2021/09/22 04:33:32;;;;;;;3.10;2.55;;;17.60;99.90;;;;;;5013584;28;20053;-76
2021/09/22 04:35:58;;;;;;;2.83;2.63;;;17.60;99.90;;;;;;5012411;28;20062;-76
2021/09/22 04:38:24;;;;;;;3.15;2.45;;;17.50;99.90;;;;;;5013465;28;20072;-76
2021/09/22 04:40:50;;;;;;;2.65;2.55;;;17.50;99.90;;;;;;5012379;28;20026;-76
2021/09/22 04:43:17;;;;;;;3.05;2.40;;;17.50;99.90;;;;;;5011943;28;20356;-77
2021/09/22 04:45:47;;;;;;;4.43;3.08;;;17.50;99.90;;;;;;5012091;28;20530;-76
2021/09/22 04:48:13;;;;;;;3.15;2.50;;;17.50;99.90;;;;;;5012182;28;20476;-76
2021/09/22 04:50:39;;;;;;;2.95;2.75;;;17.50;99.90;;;;;;5013304;28;20030;-76
2021/09/22 04:53:05;;;;;;;2.83;2.60;;;17.50;99.90;;;;;;5013313;28;20073;-76
2021/09/22 04:55:31;;;;;;;3.83;3.15;;;17.40;99.90;;;;;;5013203;28;20049;-76
2021/09/22 04:57:57;;;;;;;4.60;3.05;;;17.40;99.90;;;;;;5013223;28;20053;-76
2021/09/22 05:00:23;;;;;;;4.20;2.90;;;17.40;99.90;;;;;;5012175;28;20493;-77
2021/09/22 05:02:49;;;;;;;3.28;2.97;;;17.40;99.90;;;;;;5013145;28;20129;-76
2021/09/22 05:05:15;;;;;;;2.90;2.70;;;17.40;99.90;;;;;;5012936;28;20057;-76
2021/09/22 05:07:41;;;;;;;3.30;2.95;;;17.40;99.90;;;;;;5011532;28;20068;-77
2021/09/22 05:10:07;;;;;;;3.28;3.08;;;17.40;99.90;;;;;;5010684;28;20547;-76
2021/09/22 05:12:33;;;;;;;3.92;2.90;;;17.40;99.90;;;;;;5009546;28;20053;-76
2021/09/22 05:14:59;;;;;;;3.22;2.90;;;17.40;99.90;;;;;;5011057;28;20469;-75
2021/09/22 05:17:25;;;;;;;6.93;3.45;;;17.30;99.90;;;;;;5011410;28;20206;-76
2021/09/22 05:19:51;;;;;;;4.05;3.00;;;17.40;99.90;;;;;;5011541;28;20046;-76
2021/09/22 05:22:16;;;;;;;4.40;3.08;;;17.30;99.90;;;;;;5012145;28;20022;-76
2021/09/22 05:24:43;;;;;;;3.10;2.90;;;17.30;99.90;;;;;;5012929;28;20026;-76
2021/09/22 05:27:09;;;;;;;3.35;3.15;;;17.30;99.90;;;;;;5012669;28;20473;-77
2021/09/22 05:29:36;;;;;;;4.88;3.38;;;17.30;99.90;;;;;;5012388;28;20033;-77
2021/09/22 05:32:02;;;;;;;3.72;2.97;;;17.40;99.90;;;;;;5012336;28;20025;-76
2021/09/22 05:34:27;;;;;;;3.28;3.08;;;17.40;99.90;;;;;;5011933;28;20044;-76
2021/09/22 05:36:53;;;;;;;3.88;3.35;;;17.40;99.90;;;;;;5011010;28;20762;-76
2021/09/22 05:39:19;;;;;;;4.13;3.83;;;17.40;99.90;;;;;;5009828;28;20033;-76
2021/09/22 05:41:45;;;;;;;3.58;3.35;;;17.50;99.90;;;;;;5010577;28;20080;-77
2021/09/22 05:44:14;;;;;;;6.15;3.30;;;17.50;99.90;;;;;;5012471;28;20022;-77
2021/09/22 05:46:40;;;;;;;3.63;3.28;;;17.40;99.90;;;;;;5011729;28;20108;-77
2021/09/22 05:49:06;;;;;;;3.47;3.20;;;17.40;99.90;;;;;;5012932;28;20118;-77
2021/09/22 05:51:32;;;;;;;3.88;3.60;;;17.50;99.90;;;;;;5013146;28;20022;-77
2021/09/22 05:53:58;;;;;;;3.40;3.00;;;17.50;99.90;;;;;;5013330;28;20057;-76
2021/09/22 05:56:25;;;;;;;5.57;3.20;;;17.50;99.90;;;;;;5013518;28;20354;-77
2021/09/22 05:58:51;;;;;;;4.35;3.08;;;17.50;99.90;;;;;;5013431;28;20473;-76
2021/09/22 06:01:17;;;;;;;3.70;3.40;;;17.50;99.90;;;;;;5013193;28;20022;-76
2021/09/22 06:03:43;;;;;;;3.45;3.15;;;17.50;99.90;;;;;;5013419;28;20487;-77
2021/09/22 06:06:09;;;;;;;5.35;3.28;;;17.50;99.90;;;;;;5013436;28;20026;-76
2021/09/22 06:08:35;;;;;;;3.67;3.47;;;17.50;99.90;;;;;;5013061;28;20022;-76
2021/09/22 06:11:02;;;;;;;3.95;3.00;;;17.50;99.90;;;;;;5013103;28;20045;-76
2021/09/22 06:13:29;;;;;;;3.60;3.33;;;17.50;99.90;;;;;;5013061;28;20381;-76
2021/09/22 06:15:55;;;;;;;3.58;3.35;;;17.60;99.90;;;;;;5013223;28;20109;-76
2021/09/22 06:18:20;;;;;;;5.45;3.65;;;17.60;99.90;;;;;;5013321;28;20026;-76
2021/09/22 06:20:47;;;;;;;3.65;3.35;;;17.60;99.90;;;;;;5014032;28;20022;-76
2021/09/22 06:23:13;;;;;;;7.00;3.90;;;17.60;99.90;;;;;;5013055;28;20472;-76
2021/09/22 06:25:39;;;;;;;3.90;3.15;;;17.60;99.90;;;;;;5012203;28;20037;-76
2021/09/22 06:28:05;;;;;;;4.20;3.90;;;17.70;99.90;;;;;;5011380;28;20030;-76
2021/09/22 06:30:30;;;;;;;6.30;3.30;;;17.70;99.90;;;;;;5008766;28;20041;-76
2021/09/22 06:32:56;;;;;;;3.80;3.47;;;17.70;99.90;;;;;;5009066;28;20022;-76
2021/09/22 06:35:22;;;;;;;4.57;3.67;;;17.70;99.90;;;;;;5009257;28;20033;-76
2021/09/22 06:37:51;;;;;;;4.30;3.55;;;17.70;99.90;;;;;;5009136;28;20488;-76
2021/09/22 06:40:21;;;;;;;3.33;3.13;;;17.70;99.90;;;;;;5009707;28;20492;-77
2021/09/22 06:42:47;;;;;;;3.95;3.65;;;17.70;99.90;;;;;;5011425;28;20026;-76
2021/09/22 06:45:15;;;;;;;4.47;3.50;;;17.70;99.90;;;;;;5012791;28;20037;-76
2021/09/22 06:47:41;;;;;;;3.47;3.28;;;17.70;99.90;;;;;;5011449;28;20030;-76
2021/09/22 06:50:07;;;;;;;7.35;3.53;;;17.80;99.90;;;;;;5012446;28;20360;-76
2021/09/22 06:52:34;;;;;;;3.85;3.55;;;17.80;99.90;;;;;;5012257;28;20050;-76
2021/09/22 06:55:01;;;;;;;3.60;3.20;;;17.80;99.90;;;;;;5011692;28;20018;-77
2021/09/22 06:57:27;;;;;;;4.32;3.53;;;17.90;99.90;;;;;;5011123;28;20044;-76
2021/09/22 06:59:52;;;;;;;4.78;3.97;;;17.90;99.90;;;;;;5011768;28;20109;-77
2021/09/22 07:02:18;;;;;;;5.20;3.33;;;18.00;99.90;;;;;;5011671;28;20065;-76
2021/09/22 07:04:44;;;;;;;3.70;3.40;;;18.00;99.90;;;;;;5011609;28;20029;-76
2021/09/22 07:07:10;;;;;;;4.60;4.07;;;18.00;99.90;;;;;;5011710;28;20010;-76
2021/09/22 07:09:36;;;;;;;4.93;4.43;;;18.00;99.90;;;;;;5011049;28;20519;-76
2021/09/22 07:12:02;;;;;;;9.50;4.10;;;18.10;99.90;;;;;;5011503;28;20033;-76
2021/09/22 07:14:28;;;;;;;5.78;3.50;;;18.10;99.90;;;;;;5011533;28;20014;-76
2021/09/22 07:16:54;;;;;;;3.83;3.42;;;18.10;99.90;;;;;;5012118;28;20044;-76
2021/09/22 07:19:20;;;;;;;4.95;3.97;;;18.10;99.90;;;;;;5011545;28;20045;-76
2021/09/22 07:21:46;;;;;;;5.90;4.22;;;18.10;99.90;;;;;;5011973;28;20373;-77
2021/09/22 07:24:12;;;;;;;3.88;3.58;;;18.20;99.90;;;;;;5013547;28;20495;-76
2021/09/22 07:26:38;;;;;;;3.92;3.28;;;18.20;99.90;;;;;;5013678;28;20057;-76
2021/09/22 07:29:07;;;;;;;4.10;3.70;;;18.20;99.90;;;;;;5014583;28;20117;-76
2021/09/22 07:31:33;;;;;;;4.35;3.95;;;18.30;99.90;;;;;;5015894;28;20026;-77
2021/09/22 07:33:59;;;;;;;4.70;4.30;;;18.40;99.90;;;;;;5008762;28;20026;-76
2021/09/22 07:36:25;;;;;;;6.93;3.50;;;18.40;99.90;;;;;;5012115;28;20049;-76
2021/09/22 07:38:51;;;;;;;4.30;3.90;;;18.40;99.90;;;;;;5010613;28;20100;-76
2021/09/22 07:41:17;;;;;;;4.65;4.35;;;18.40;99.90;;;;;;5010775;28;20030;-77
2021/09/22 07:43:42;;;;;;;4.57;4.18;;;18.50;99.90;;;;;;5011482;28;20021;-78
2021/09/22 07:46:08;;;;;;;5.03;4.55;;;18.60;99.90;;;;;;5010888;28;20076;-78
2021/09/22 07:48:35;;;;;;;4.43;4.13;;;18.60;99.90;;;;;;5011256;28;20459;-78
2021/09/22 07:51:02;;;;;;;4.63;3.97;;;18.60;99.90;;;;;;5014635;28;20029;-76
2021/09/22 07:53:28;;;;;;;6.18;3.85;;;18.60;99.90;;;;;;5015219;28;20488;-76
2021/09/22 07:55:54;;;;;;;5.13;4.72;;;18.60;99.90;;;;;;5013985;28;20025;-76
2021/09/22 07:58:20;;;;;;;4.88;4.47;;;18.70;99.90;;;;;;5015215;28;20049;-76
2021/09/22 08:00:46;;;;;;;7.18;4.25;;;18.70;99.90;;;;;;5014992;28;20030;-76
2021/09/22 08:03:12;;;;;;;5.53;4.53;;;18.70;99.90;;;;;;5015301;28;20026;-75
2021/09/22 08:05:40;;;;;;;7.85;5.25;;;18.80;99.90;;;;;;5015152;28;20109;-76
2021/09/22 08:08:07;;;;;;;5.68;5.18;;;18.70;99.90;;;;;;5015237;28;20018;-76
2021/09/22 08:10:34;;;;;;;12.10;4.47;;;18.70;99.90;;;;;;5015300;28;20058;-76
2021/09/22 08:13:01;;;;;;;5.50;4.20;;;18.80;99.90;;;;;;5013888;28;20025;-76
2021/09/22 08:15:26;;;;;;;4.85;4.45;;;18.80;99.90;;;;;;5016262;28;20026;-76
2021/09/22 08:17:52;;;;;;;6.20;4.65;;;18.80;99.90;;;;;;5014018;28;20037;-76
2021/09/22 08:20:18;;;;;;;6.45;3.88;;;18.90;99.90;;;;;;5013490;28;20022;-76
2021/09/22 08:22:45;;;;;;;4.18;3.88;;;18.90;99.90;;;;;;5013764;28;20026;-76
2021/09/22 08:25:12;;;;;;;7.28;4.22;;;18.90;99.90;;;;;;5012496;28;20472;-77
2021/09/22 08:27:37;;;;;;;4.13;3.75;;;18.90;99.90;;;;;;5013592;28;20044;-77
2021/09/22 08:30:06;;;;;;;4.22;3.88;;;18.80;99.90;;;;;;5013481;28;20018;-77
2021/09/22 08:32:32;;;;;;;5.35;3.80;;;18.90;99.90;;;;;;5013645;28;20029;-76
2021/09/22 08:34:58;;;;;;;3.85;3.42;;;18.90;99.90;;;;;;5012636;28;20108;-77
2021/09/22 08:37:24;;;;;;;4.00;3.65;;;18.90;99.90;;;;;;5012923;28;20076;-76
2021/09/22 08:39:50;;;;;;;7.95;3.72;;;19.00;99.90;;;;;;5013392;28;20018;-76
2021/09/22 08:42:16;;;;;;;4.30;3.72;;;19.00;99.90;;;;;;5013485;28;20026;-76
2021/09/22 08:44:43;;;;;;;5.40;4.95;;;19.00;99.90;;;;;;5013106;28;20395;-76
2021/09/22 08:47:09;;;;;;;5.43;4.13;;;18.90;99.90;;;;;;5013422;28;20021;-77
2021/09/22 08:49:36;;;;;;;5.38;4.22;;;18.90;99.90;;;;;;5013044;28;20029;-77
2021/09/22 08:52:02;;;;;;;4.78;4.13;;;18.90;99.90;;;;;;5011739;28;20492;-77
2021/09/22 08:54:29;;;;;;;4.38;3.80;;;19.00;99.90;;;;;;5011941;28;20377;-76
2021/09/22 08:56:57;;;;;;;4.00;3.60;;;19.10;99.90;;;;;;5013165;28;20037;-76
2021/09/22 08:59:23;;;;;;;4.18;3.78;;;19.10;99.90;;;;;;5012969;28;20029;-76
2021/09/22 09:02:09;;;;;;;4.72;3.70;;;19.10;99.90;;;;;;5012859;28;20025;-76
2021/09/22 09:04:37;;;;;;;5.35;3.63;;;19.20;99.90;;;;;;5011552;28;20022;-76
2021/09/22 09:07:03;;;;;;;4.22;3.70;;;19.20;99.90;;;;;;5012927;28;20021;-76
2021/09/22 09:09:36;;;;;;;7.55;3.45;;;19.20;99.90;;;;;;5012884;28;20026;-77
2021/09/22 09:12:03;;;;;;;4.25;3.60;;;19.20;99.90;;;;;;5012849;28;20026;-76
2021/09/22 09:14:34;;;;;;;6.90;4.70;;;19.30;99.90;;;;;;5011421;28;20026;-76
2021/09/22 09:17:01;;;;;;;6.55;3.95;;;19.20;99.90;;;;;;5012763;28;20018;-76
2021/09/22 09:19:27;;;;;;;3.63;3.28;;;19.20;99.90;;;;;;5011425;28;20380;-76
2021/09/22 09:21:52;;;;;;;5.43;4.30;;;19.30;99.90;;;;;;5012666;28;20079;-76
2021/09/22 09:24:30;;;;;;;6.90;4.07;;;19.30;99.90;;;;;;5012554;28;20026;-76
2021/09/22 09:26:56;;;;;;;4.63;4.22;;;19.30;99.90;;;;;;5012546;28;20100;-76
2021/09/22 09:29:22;;;;;;;4.45;4.05;;;19.30;99.90;;;;;;5012472;28;20030;-76
2021/09/22 09:31:48;;;;;;;6.65;4.78;;;19.40;99.90;;;;;;5012502;28;20369;-76
2021/09/22 09:34:13;;;;;;;5.97;5.13;;;19.50;99.90;;;;;;5012540;28;20494;-73
2021/09/22 09:36:45;;;;;;;7.80;4.80;;;19.60;99.90;;;;;;5012378;28;20030;-73
2021/09/22 09:39:12;;;;;;;;;;;19.70;99.90;;;;;;5012655;28;20026;-76
2021/09/22 09:41:51;;;;;;;5.13;4.65;;;19.80;99.90;;;;;;5012157;28;19932;-76
2021/09/22 09:44:21;;;;;;;5.22;4.70;;;19.80;99.90;;;;;;5012346;28;20049;-76
2021/09/22 09:46:48;;;;;;;6.95;5.05;;;19.80;99.90;;;;;;5010678;28;20036;-76
2021/09/22 09:49:19;;;;;;;8.05;5.60;;;19.80;99.90;;;;;;5010776;28;20328;-76
2021/09/22 09:51:56;;;;;;;9.98;6.28;;;19.80;99.90;;;;;;5011128;28;20040;-76
2021/09/22 09:54:28;;;;;;;7.53;6.40;;;19.80;99.90;;;;;;5010240;28;20068;-76
2021/09/22 09:56:55;;;;;;;10.17;7.10;;;19.90;99.90;;;;;;5012231;28;20080;-76
2021/09/22 09:59:23;;;;;;;12.65;7.60;;;19.90;99.90;;;;;;5012158;28;20395;-77
2021/09/22 10:01:53;;;;;;;9.55;6.78;;;19.90;99.90;;;;;;5011843;28;20030;-76
2021/09/22 10:04:22;;;;;;;8.05;6.28;;;19.90;99.90;;;;;;5011863;28;20030;-76
2021/09/22 10:06:48;;;;;;;9.07;5.88;;;19.90;99.90;;;;;;5011922;28;20100;-76
2021/09/22 10:09:14;;;;;;;9.60;5.28;;;20.00;99.90;;;;;;5011878;28;20030;-76
2021/09/22 10:11:45;;;;;;;9.52;6.55;;;20.00;99.90;;;;;;5011774;28;20052;-76
2021/09/22 10:14:12;;;;;;;8.73;6.03;;;20.10;99.90;;;;;;5014303;28;20116;-76
2021/09/22 10:16:38;;;;;;;9.75;7.22;;;20.10;99.90;;;;;;5011895;28;20554;-76
2021/09/22 10:19:05;;;;;;;8.63;7.13;;;20.10;99.90;;;;;;5011668;28;20030;-77
2021/09/22 10:21:33;;;;;;;11.73;7.15;;;20.00;99.90;;;;;;5011612;28;20025;-76
2021/09/22 10:24:01;;;;;;;8.02;6.80;;;20.10;99.90;;;;;;5010441;28;20065;-76
2021/09/22 10:26:28;;;;;;;10.10;7.55;;;20.00;99.90;;;;;;5011672;28;20018;-76
2021/09/22 10:28:59;;;;;;;12.50;7.18;;;20.00;99.90;;;;;;5011533;28;20423;-76
2021/09/22 10:31:28;;;;;;;8.05;5.95;;;20.00;99.90;;;;;;5010741;28;20057;-76
2021/09/22 10:33:54;;;;;;;8.38;7.00;;;20.00;99.90;;;;;;5011533;28;20041;-76
2021/09/22 10:36:33;;;;;;;11.02;7.35;;;20.10;99.90;;;;;;5011012;28;20030;-77
2021/09/22 10:38:59;;;;;;;9.82;6.93;;;20.10;99.90;;;;;;5009554;28;20535;-76
2021/09/22 10:41:28;;;;;;;7.32;6.10;;;20.20;99.90;;;;;;5010785;28;20026;-76
2021/09/22 10:43:54;;;;;;;7.40;5.70;;;20.30;99.90;;;;;;5009759;28;20185;-76
2021/09/22 10:46:21;;;;;;;7.85;7.03;;;20.40;99.90;;;;;;5011602;28;20484;-76
2021/09/22 10:48:50;;;;;;;7.55;6.63;;;20.40;99.90;;;;;;5011572;28;20024;-76
2021/09/22 10:51:34;;;;;;;8.25;6.93;;;20.50;99.90;;;;;;5011484;28;20030;-76
2021/09/22 10:54:19;;;;;;;12.35;6.30;;;20.50;99.90;;;;;;5010043;28;20154;-76
2021/09/22 10:56:59;;;;;;;7.43;6.70;;;20.50;99.90;;;;;;5011339;28;20392;-76
2021/09/22 10:59:28;;;;;;;9.40;6.43;;;20.50;99.90;;;;;;5013131;28;20021;-76
2021/09/22 11:01:54;;;;;;;8.82;6.53;;;20.60;99.90;;;;;;5015379;28;20030;-76
2021/09/22 11:04:20;;;;;;;7.60;6.10;;;20.60;99.90;;;;;;5015077;28;20022;-76
2021/09/22 11:06:46;;;;;;;9.60;6.47;;;20.70;99.90;;;;;;5015092;28;20021;-76
2021/09/22 11:09:21;;;;;;;7.18;5.90;;;20.80;99.90;;;;;;5015046;28;20054;-76
2021/09/22 11:11:56;;;;;;;8.88;6.95;;;20.80;99.90;;;;;;5015224;28;20180;-76
2021/09/22 11:14:30;;;;;;;7.72;6.28;;;20.80;99.90;;;;;;5014996;28;20022;-76
2021/09/22 11:17:10;;;;;;;7.93;6.82;;;20.80;99.90;;;;;;5015013;28;20396;-77
2021/09/22 11:19:38;;;;;;;13.23;7.07;;;20.80;99.90;;;;;;5014848;28;20323;-73
2021/09/22 11:22:08;;;;;;;7.03;6.28;;;20.90;99.90;;;;;;5014244;28;20037;-73
2021/09/22 11:24:35;;;;;;;10.40;6.82;;;20.80;99.90;;;;;;5013587;28;20156;-74
2021/09/22 11:27:05;;;;;;;8.20;6.05;;;20.80;99.90;;;;;;5013401;28;20037;-73
2021/09/22 11:29:41;;;;;;;7.28;5.35;;;20.80;99.90;;;;;;5011119;28;20068;-73
2021/09/22 11:32:29;;;;;;;11.13;6.43;;;20.90;99.90;;;;;;5013474;28;20018;-76
2021/09/22 11:34:56;;;;;;;7.30;5.85;;;20.90;99.90;;;;;;5012340;28;20541;-77
2021/09/22 11:37:28;;;;;;;7.45;6.00;;;20.90;99.90;;;;;;5014496;28;20034;-76
2021/09/22 11:39:53;;;;;;;7.07;5.53;;;20.80;99.90;;;;;;5013982;28;20103;-77
2021/09/22 11:42:19;;;;;;;9.25;6.40;;;20.80;99.90;;;;;;5013373;28;20057;-76
2021/09/22 11:44:51;;;;;;;6.97;6.10;;;20.70;99.90;;;;;;5014418;28;20132;-76
2021/09/22 11:47:17;;;;;;;7.13;4.90;;;20.80;99.90;;;;;;5014626;28;20014;-76
2021/09/22 11:49:44;;;;;;;8.27;6.30;;;20.80;99.90;;;;;;5014475;28;20116;-77
2021/09/22 11:52:10;;;;;;;7.55;6.25;;;20.80;99.80;;;;;;5014310;28;20026;-73
2021/09/22 11:54:40;;;;;;;7.53;6.07;;;20.80;99.40;;;;;;5013013;28;20041;-76
2021/09/22 11:57:10;;;;;;;8.70;6.10;;;20.80;99.60;;;;;;5014193;28;20518;-76
2021/09/22 11:59:36;;;;;;;6.50;5.82;;;20.80;99.90;;;;;;5012772;28;20026;-76
2021/09/22 12:02:02;;;;;;;9.88;6.82;;;21.00;99.90;;;;;;5014316;28;20497;-77
2021/09/22 12:04:35;;;;;;;7.38;6.57;;;21.10;99.90;;;;;;5014138;28;20022;-77
2021/09/22 12:07:01;;;;;;;8.40;6.63;;;21.10;99.70;;;;;;5014259;28;20076;-76
2021/09/22 12:09:39;;;;;;;7.68;6.18;;;21.10;99.30;;;;;;5012332;28;20033;-77
2021/09/22 12:12:15;;;;;;;7.68;5.82;;;21.10;99.50;;;;;;5014200;28;20112;-74
2021/09/22 12:14:52;;;;;;;8.35;7.47;;;21.10;99.80;;;;;;5013967;28;20542;-76
2021/09/22 12:17:20;;;;;;;7.63;6.53;;;21.10;98.90;;;;;;5013908;28;20546;-76
2021/09/22 12:19:47;;;;;;;7.47;6.10;;;21.00;99.00;;;;;;5013698;28;20542;-76
2021/09/22 12:22:19;;;;;;;8.65;6.38;;;21.10;99.90;;;;;;5016291;28;20028;-76
2021/09/22 12:24:46;;;;;;;6.72;6.00;;;21.10;99.90;;;;;;5013748;28;20528;-76
2021/09/22 12:27:18;;;;;;;6.68;5.82;;;21.00;99.60;;;;;;5013852;28;20022;-77
2021/09/22 12:30:06;;;;;;;8.07;6.63;;;21.10;99.60;;;;;;5013709;28;20022;-76
2021/09/22 12:32:34;;;;;;;7.38;6.18;;;21.10;99.00;;;;;;5012342;28;20389;-76
2021/09/22 12:35:06;;;;;;;7.70;6.78;;;21.10;99.10;;;;;;5013674;28;20022;-76
2021/09/22 12:37:32;;;;;;;7.13;6.30;;;21.20;98.80;;;;;;5013636;28;20026;-77
2021/09/22 12:40:02;;;;;;;7.43;6.63;;;21.30;98.90;;;;;;5012085;28;20018;-76
2021/09/22 12:42:40;;;;;;;6.80;5.50;;;21.30;98.60;;;;;;5013591;28;20018;-76
2021/09/22 12:45:08;;;;;;;6.72;5.68;;;21.50;99.20;;;;;;5013501;28;20076;-76